createdAt,value
2018-12-23T00:04:16.654Z,5.75
2018-12-23T00:10:20.078Z,5.22
2018-12-23T00:16:23.510Z,5.72
2018-12-23T00:22:26.940Z,5.95
2018-12-23T00:28:30.410Z,5.37
2018-12-23T00:34:33.862Z,5.95
2018-12-23T00:40:37.312Z,5.03
2018-12-23T00:46:40.736Z,5.45
2018-12-23T00:52:44.203Z,5.45
2018-12-23T00:58:48.635Z,5.37
2018-12-23T01:04:52.156Z,5.10
2018-12-23T01:10:55.709Z,5.20
2018-12-23T01:16:59.145Z,5.05
2018-12-23T01:23:02.577Z,4.47
2018-12-23T01:29:06.116Z,4.67
2018-12-23T01:35:09.691Z,5.10
2018-12-23T01:41:13.241Z,4.37
2018-12-23T01:47:16.699Z,4.47
2018-12-23T01:53:20.163Z,4.83
2018-12-23T01:59:23.577Z,4.62
2018-12-23T02:05:27.077Z,5.78
2018-12-23T02:11:30.546Z,4.03
2018-12-23T02:17:33.983Z,4.08
2018-12-23T02:23:37.431Z,4.03
2018-12-23T02:29:41.336Z,4.90
2018-12-23T02:35:44.744Z,3.85
2018-12-23T02:41:48.343Z,5.22
2018-12-23T02:47:51.776Z,5.25
2018-12-23T02:53:55.205Z,5.30
2018-12-23T02:59:58.732Z,4.50
2018-12-23T03:06:06.179Z,5.17
2018-12-23T03:12:09.095Z,5.62
2018-12-23T03:18:13.721Z,5.47
2018-12-23T03:24:17.734Z,5.95
2018-12-23T03:30:21.174Z,5.40
2018-12-23T03:36:24.583Z,5.08
2018-12-23T03:42:28.107Z,5.22
2018-12-23T03:48:31.531Z,5.95
2018-12-23T03:54:35.041Z,4.95
2018-12-23T04:00:38.479Z,5.80
2018-12-23T04:06:41.976Z,5.62
2018-12-23T04:12:45.425Z,5.25
2018-12-23T04:18:49.069Z,5.17
2018-12-23T04:24:52.735Z,5.83
2018-12-23T04:30:56.327Z,5.58
2018-12-23T04:36:59.768Z,5.47
2018-12-23T04:43:03.345Z,5.00
2018-12-23T04:49:06.811Z,5.85
2018-12-23T04:55:10.251Z,5.85
2018-12-23T05:01:13.685Z,5.65
2018-12-23T05:07:17.151Z,6.10
2018-12-23T05:13:20.660Z,5.08
2018-12-23T05:19:24.239Z,5.20
2018-12-23T05:25:27.788Z,5.35
2018-12-23T05:31:31.291Z,5.47
2018-12-23T05:37:34.762Z,5.45
2018-12-23T05:43:38.199Z,5.20
2018-12-23T05:49:41.738Z,5.47
2018-12-23T05:55:44.292Z,6.30
2018-12-23T06:01:47.748Z,6.25
2018-12-23T06:07:51.194Z,6.37
2018-12-23T06:13:54.696Z,6.78
2018-12-23T06:19:58.127Z,6.30
2018-12-23T06:26:01.629Z,6.90
2018-12-23T06:32:05.209Z,6.70
2018-12-23T06:38:08.665Z,7.00
2018-12-23T06:44:12.129Z,6.17
2018-12-23T06:50:15.560Z,5.40
2018-12-23T06:56:19.046Z,6.67
2018-12-23T07:02:22.565Z,6.45
2018-12-23T07:08:26.120Z,6.83
2018-12-23T07:14:29.599Z,6.33
2018-12-23T07:20:33.088Z,7.78
2018-12-23T07:26:37.159Z,7.20
2018-12-23T07:32:40.736Z,7.33
2018-12-23T07:38:44.230Z,12.33
2018-12-23T07:44:48.265Z,11.70
2018-12-23T07:50:53.648Z,11.50
2018-12-23T07:56:57.193Z,10.65
2018-12-23T08:03:00.619Z,11.88
2018-12-23T08:09:05.997Z,11.78
2018-12-23T08:15:09.554Z,17.60
2018-12-23T08:21:12.998Z,9.03
2018-12-23T08:27:16.486Z,11.80
2018-12-23T08:33:19.973Z,11.38
2018-12-23T08:39:24.125Z,12.68
2018-12-23T08:45:27.597Z,11.60
2018-12-23T08:51:31.069Z,10.68
2018-12-23T08:57:35.457Z,11.03
2018-12-23T09:03:39.109Z,11.85
2018-12-23T09:09:42.518Z,12.85
2018-12-23T09:15:45.968Z,11.65
2018-12-23T09:21:49.547Z,13.28
2018-12-23T09:27:52.994Z,10.38
2018-12-23T09:33:56.516Z,9.93
2018-12-23T09:40:00.184Z,9.78
2018-12-23T09:46:03.702Z,9.40
2018-12-23T09:52:07.241Z,7.65
2018-12-23T09:58:10.713Z,6.33
2018-12-23T10:04:14.184Z,5.25
2018-12-23T10:10:17.854Z,5.25
2018-12-23T10:16:21.289Z,5.05
2018-12-23T10:22:24.802Z,6.00
2018-12-23T10:28:28.238Z,5.28
2018-12-23T10:34:33.186Z,4.53
2018-12-23T10:40:36.827Z,6.08
2018-12-23T10:46:40.285Z,5.67
2018-12-23T10:52:43.763Z,5.65
2018-12-23T10:58:47.277Z,6.00
2018-12-23T11:04:50.739Z,5.78
2018-12-23T11:10:54.869Z,5.35
2018-12-23T11:16:58.583Z,5.60
2018-12-23T11:23:02.018Z,4.40
2018-12-23T11:29:05.468Z,4.75
2018-12-23T11:35:09.175Z,4.17
2018-12-23T11:41:12.759Z,6.42
2018-12-23T11:47:16.219Z,5.78
2018-12-23T11:53:19.721Z,5.50
2018-12-23T11:59:23.171Z,5.42
2018-12-23T12:05:27.469Z,4.67
2018-12-23T12:11:30.906Z,6.53
2018-12-23T12:17:34.525Z,7.80
2018-12-23T12:23:38.276Z,9.50
2018-12-23T12:29:41.783Z,5.70
2018-12-23T12:35:45.231Z,6.70
2018-12-23T12:41:48.697Z,5.90
2018-12-23T12:47:52.287Z,5.92
2018-12-23T12:53:55.744Z,5.72
2018-12-23T12:59:59.288Z,6.40
2018-12-23T13:06:02.880Z,6.83
2018-12-23T13:12:06.344Z,6.35
2018-12-23T13:18:09.778Z,11.18
2018-12-23T13:24:13.330Z,8.90
2018-12-23T13:30:16.851Z,7.42
2018-12-23T13:36:20.373Z,7.42
2018-12-23T13:42:42.062Z,8.03
2018-12-23T13:49:41.099Z,7.87
2018-12-23T13:57:12.467Z,6.35
2018-12-23T14:03:53.121Z,6.33
2018-12-23T14:10:07.834Z,3.67
2018-12-23T14:16:12.615Z,4.00
2018-12-23T14:22:17.390Z,2.92
2018-12-23T14:28:22.200Z,2.90
2018-12-23T14:34:27.235Z,2.37
2018-12-23T14:40:31.909Z,4.30
2018-12-23T14:46:36.569Z,3.92
2018-12-23T14:52:41.256Z,3.20
2018-12-23T14:58:46.053Z,3.08
2018-12-23T15:04:50.713Z,3.00
2018-12-23T15:10:55.448Z,3.98
2018-12-23T15:17:00.110Z,2.70
2018-12-23T15:23:10.649Z,3.42
2018-12-23T15:29:11.393Z,3.15
2018-12-23T15:35:16.180Z,4.00
2018-12-23T15:41:20.915Z,3.00
2018-12-23T15:47:25.693Z,4.08
2018-12-23T15:53:30.463Z,3.42
2018-12-23T15:59:35.218Z,3.75
2018-12-23T16:05:39.919Z,3.90
2018-12-23T16:11:44.609Z,3.70
2018-12-23T16:17:49.316Z,4.70
2018-12-23T16:23:54.122Z,5.40
2018-12-23T16:29:58.798Z,4.40
2018-12-23T16:36:03.492Z,3.37
2018-12-23T16:42:08.274Z,3.95
2018-12-23T16:48:14.969Z,3.05
2018-12-23T16:54:21.742Z,4.15
2018-12-23T17:00:27.428Z,4.33
2018-12-23T17:06:32.198Z,4.72
2018-12-23T17:12:38.781Z,5.47
2018-12-23T17:18:43.516Z,4.45
2018-12-23T17:24:48.152Z,4.55
2018-12-23T17:30:52.795Z,5.47
2018-12-23T17:36:57.525Z,4.42
2018-12-23T17:43:02.207Z,5.95
2018-12-23T17:49:06.877Z,6.47
2018-12-23T17:55:11.617Z,5.55
2018-12-23T18:01:16.482Z,5.45
2018-12-23T18:07:21.265Z,5.47
2018-12-23T18:13:26.180Z,10.72
2018-12-23T18:19:30.922Z,7.00
2018-12-23T18:25:35.693Z,6.17
2018-12-23T18:31:40.337Z,8.60
2018-12-23T18:37:45.011Z,5.28
2018-12-23T18:43:50.078Z,8.63
2018-12-23T18:49:54.841Z,7.17
2018-12-23T18:55:59.468Z,7.92
2018-12-23T19:02:08.770Z,10.25
2018-12-23T19:08:18.073Z,5.87
2018-12-23T19:14:53.721Z,12.13
2018-12-23T19:21:44.953Z,10.53
2018-12-23T19:28:27.701Z,21.57
2018-12-23T19:35:10.347Z,16.05
2018-12-23T19:42:04.951Z,14.83
2018-12-23T19:48:49.625Z,23.18
2018-12-23T19:55:21.475Z,3.67
2018-12-23T20:01:47.519Z,3.92
2018-12-23T20:08:26.526Z,12.70
2018-12-23T20:15:29.526Z,24.30
2018-12-23T20:22:21.654Z,4.80
2018-12-23T20:28:57.248Z,3.90
2018-12-23T20:35:50.462Z,4.97
2018-12-23T20:42:31.918Z,8.73
2018-12-23T20:49:11.010Z,11.65
2018-12-23T20:55:53.190Z,6.60
2018-12-23T21:02:35.972Z,2.90
2018-12-23T21:09:35.959Z,2.70
2018-12-23T21:16:36.179Z,3.02
2018-12-23T21:23:30.403Z,3.47
2018-12-23T21:30:04.273Z,3.95
2018-12-23T21:36:42.276Z,2.80
2018-12-23T21:43:16.345Z,1.90
2018-12-23T21:49:54.803Z,1.98
2018-12-23T21:57:07.248Z,2.50
2018-12-23T22:03:48.309Z,1.75
2018-12-23T22:10:21.171Z,2.05
2018-12-23T22:16:25.914Z,2.20
2018-12-23T22:22:30.722Z,2.35
2018-12-23T22:28:35.714Z,2.85
2018-12-23T22:34:40.462Z,2.42
2018-12-23T22:40:53.123Z,2.42
2018-12-23T22:46:57.870Z,2.50
2018-12-23T22:53:02.519Z,3.40
2018-12-23T22:59:07.164Z,2.52
2018-12-23T23:05:11.992Z,3.10
2018-12-23T23:11:16.644Z,3.33
2018-12-23T23:17:21.421Z,3.27
2018-12-23T23:23:26.166Z,3.00
2018-12-23T23:29:30.860Z,2.40
2018-12-23T23:35:35.734Z,2.55
2018-12-23T23:41:40.527Z,2.42
2018-12-23T23:47:45.157Z,2.62
2018-12-23T23:53:50.127Z,2.87
2018-12-23T23:59:54.847Z,2.85
